Time;durP1;ratioP1;P1;durP2;ratioP2;P2;SDS_P1;SDS_P2;PMS_P1;PMS_P2;Temp;Humidity;BMP_temperature;BMP_pressure;BME280_temperature;BME280_humidity;BME280_pressure;Samples;Min_cycle;Max_cycle;Signal;HPM_P1;HPM_P2
2021/10/31 00:00:22;;;;;;;1.50;1.08;;;17.80;87.60;;;;;;5048592;28;20033;-79
2021/10/31 00:02:47;;;;;;;2.35;1.00;;;17.80;87.60;;;;;;5045187;28;20531;-76
2021/10/31 00:05:13;;;;;;;2.30;1.17;;;17.80;87.60;;;;;;5034099;28;20041;-79
2021/10/31 00:07:39;;;;;;;3.88;1.13;;;17.80;87.50;;;;;;5040811;28;20028;-78
2021/10/31 00:10:05;;;;;;;1.95;0.90;;;17.80;87.50;;;;;;5039720;28;20094;-80
2021/10/31 00:12:32;;;;;;;2.40;1.00;;;17.80;87.50;;;;;;5039524;28;20104;-85
2021/10/31 00:14:57;;;;;;;1.80;0.80;;;17.80;87.50;;;;;;5031781;28;20524;-81
2021/10/31 00:17:23;;;;;;;4.20;1.10;;;17.80;87.60;;;;;;5048237;28;20100;-87
2021/10/31 00:19:49;;;;;;;3.00;1.30;;;17.80;87.60;;;;;;5048316;28;20497;-85
2021/10/31 00:22:15;;;;;;;2.33;0.90;;;17.80;87.60;;;;;;5047794;28;20493;-86
2021/10/31 00:24:40;;;;;;;2.88;1.10;;;17.80;87.50;;;;;;5037407;28;20069;-88
2021/10/31 00:27:06;;;;;;;1.83;1.10;;;17.80;87.60;;;;;;5037960;28;20564;-80
2021/10/31 00:29:32;;;;;;;3.63;1.23;;;17.80;87.60;;;;;;5046043;28;20021;-84
2021/10/31 00:31:57;;;;;;;3.08;1.23;;;17.80;87.50;;;;;;5046206;28;20060;-84
2021/10/31 00:34:23;;;;;;;3.58;0.75;;;17.80;87.60;;;;;;5046849;28;20080;-82
2021/10/31 00:36:49;;;;;;;3.13;1.20;;;17.80;87.60;;;;;;5046338;28;20104;-85
2021/10/31 00:39:14;;;;;;;2.13;1.00;;;17.80;87.60;;;;;;5047574;28;20108;-84
2021/10/31 00:41:40;;;;;;;2.22;1.13;;;17.80;87.60;;;;;;5047346;28;20585;-83
2021/10/31 00:44:06;;;;;;;2.13;1.08;;;17.80;87.70;;;;;;5048022;28;20400;-82
2021/10/31 00:46:31;;;;;;;2.15;1.20;;;17.70;87.60;;;;;;5047377;28;20041;-81
2021/10/31 00:48:57;;;;;;;4.65;1.10;;;17.70;87.60;;;;;;5047802;28;20102;-78
2021/10/31 00:51:26;;;;;;;1.70;0.90;;;17.70;87.60;;;;;;5047915;28;20403;-77
2021/10/31 00:53:57;;;;;;;2.33;1.10;;;17.80;87.60;;;;;;5048257;28;20049;-77
2021/10/31 00:56:24;;;;;;;2.95;1.17;;;17.70;87.50;;;;;;5048118;28;20025;-81
2021/10/31 00:58:50;;;;;;;1.80;1.00;;;17.70;87.50;;;;;;5047557;28;20500;-83
2021/10/31 01:01:16;;;;;;;1.75;0.90;;;17.70;87.40;;;;;;5047881;28;20025;-82
2021/10/31 01:03:42;;;;;;;3.80;0.90;;;17.70;87.40;;;;;;5047698;28;20030;-82
2021/10/31 01:06:46;;;;;;;3.13;1.00;;;17.70;87.40;;;;;;5047498;28;20041;-78
2021/10/31 01:09:39;;;;;;;2.78;1.23;;;17.70;87.40;;;;;;5047571;28;20386;-79
2021/10/31 01:12:49;;;;;;;3.88;0.82;;;17.70;87.40;;;;;;5040381;28;20033;-79
2021/10/31 01:15:20;;;;;;;2.67;1.00;;;17.70;87.40;;;;;;5047589;28;20060;-79
2021/10/31 01:18:08;;;;;;;1.60;1.00;;;17.70;87.40;;;;;;5047431;28;20042;-79
2021/10/31 01:20:52;;;;;;;1.60;0.70;;;17.70;87.40;;;;;;5047428;28;20025;-82
2021/10/31 01:23:33;;;;;;;1.40;0.88;;;17.70;87.40;;;;;;5047623;28;20029;-80
2021/10/31 01:26:27;;;;;;;2.17;0.98;;;17.70;87.40;;;;;;5047469;28;20037;-82
2021/10/31 01:29:13;;;;;;;1.77;1.00;;;17.70;87.40;;;;;;5049197;28;20469;-78
2021/10/31 01:32:00;;;;;;;1.50;0.80;;;17.70;87.40;;;;;;5050711;28;20043;-80
2021/10/31 01:34:31;;;;;;;1.55;0.95;;;17.70;87.30;;;;;;5050837;28;20112;-82
2021/10/31 01:37:13;;;;;;;2.25;1.17;;;17.70;87.40;;;;;;5049942;28;20033;-77
2021/10/31 01:39:55;;;;;;;2.30;0.93;;;17.70;87.40;;;;;;5050579;28;20024;-80
2021/10/31 01:42:21;;;;;;;2.55;1.10;;;17.70;87.40;;;;;;5050784;28;20161;-81
2021/10/31 01:45:08;;;;;;;1.77;0.80;;;17.70;87.30;;;;;;5049847;28;20033;-77
2021/10/31 01:47:47;;;;;;;1.95;1.10;;;17.70;87.20;;;;;;5050526;28;20040;-84
2021/10/31 01:50:36;;;;;;;1.60;0.90;;;17.60;87.20;;;;;;5049425;28;20033;-80
2021/10/31 01:53:14;;;;;;;2.47;1.15;;;17.60;87.00;;;;;;5050174;28;20029;-81
2021/10/31 01:55:51;;;;;;;2.22;0.85;;;17.60;87.10;;;;;;5050481;28;20025;-81
2021/10/31 01:58:20;;;;;;;2.15;1.35;;;17.60;87.10;;;;;;5050523;28;20387;-82
2021/10/31 02:00:48;;;;;;;2.03;1.20;;;17.60;87.00;;;;;;5050233;28;20033;-81
2021/10/31 02:03:18;;;;;;;2.85;0.90;;;17.60;87.00;;;;;;5050299;28;20567;-80
2021/10/31 02:05:44;;;;;;;2.78;0.93;;;17.60;87.00;;;;;;5049009;28;20033;-80
2021/10/31 02:08:10;;;;;;;1.33;0.80;;;17.70;87.00;;;;;;5048258;28;20028;-77
2021/10/31 02:10:38;;;;;;;3.55;0.88;;;17.60;86.90;;;;;;5050133;28;20033;-78
2021/10/31 02:13:05;;;;;;;2.10;1.15;;;17.60;86.90;;;;;;5050303;28;20488;-83
2021/10/31 02:15:32;;;;;;;2.70;1.10;;;17.60;86.80;;;;;;5049974;28;20017;-77
2021/10/31 02:17:59;;;;;;;1.50;0.93;;;17.60;86.80;;;;;;5050121;28;20033;-81
2021/10/31 02:20:26;;;;;;;1.30;0.90;;;17.60;86.80;;;;;;5050406;28;20024;-82
2021/10/31 02:22:56;;;;;;;1.63;0.88;;;17.60;86.80;;;;;;5049578;28;20058;-82
2021/10/31 02:25:23;;;;;;;1.65;0.95;;;17.60;86.80;;;;;;5050183;28;20093;-81
2021/10/31 02:27:49;;;;;;;1.98;1.15;;;17.60;87.00;;;;;;5049786;28;20027;-81
2021/10/31 02:30:14;;;;;;;2.42;1.10;;;17.60;86.80;;;;;;5049632;28;20037;-83
2021/10/31 02:32:41;;;;;;;2.28;1.10;;;17.60;86.80;;;;;;5048201;28;20029;-81
2021/10/31 02:35:09;;;;;;;2.58;1.30;;;17.60;86.80;;;;;;5049955;28;20503;-79
2021/10/31 02:37:37;;;;;;;3.08;1.10;;;17.60;86.80;;;;;;5049233;28;20018;-83
2021/10/31 02:40:04;;;;;;;3.13;1.20;;;17.60;86.80;;;;;;5048639;28;20037;-81
2021/10/31 02:42:30;;;;;;;2.88;1.30;;;17.50;86.60;;;;;;5049521;28;20021;-84
2021/10/31 02:44:55;;;;;;;1.85;1.02;;;17.50;86.60;;;;;;5048597;28;20029;-84
2021/10/31 02:47:58;;;;;;;1.50;1.10;;;17.50;86.70;;;;;;5049728;28;20504;-84
2021/10/31 02:50:31;;;;;;;2.03;1.35;;;17.60;86.60;;;;;;5050162;28;20069;-84
2021/10/31 02:53:02;;;;;;;3.67;1.75;;;17.60;86.60;;;;;;5049668;28;20040;-83
2021/10/31 02:55:28;;;;;;;4.43;1.52;;;17.60;86.60;;;;;;5049245;28;20024;-84
2021/10/31 02:58:16;;;;;;;1.80;1.38;;;17.60;86.50;;;;;;5049832;28;20025;-83
2021/10/31 03:00:41;;;;;;;4.05;1.42;;;17.60;86.50;;;;;;5048946;28;20481;-84
2021/10/31 03:03:07;;;;;;;2.85;1.42;;;17.50;86.40;;;;;;5049177;28;20017;-84
2021/10/31 03:05:34;;;;;;;2.33;1.20;;;17.60;86.50;;;;;;5048979;28;20041;-77
2021/10/31 03:08:00;;;;;;;1.63;1.15;;;17.50;86.40;;;;;;5048724;28;20492;-82
2021/10/31 03:10:26;;;;;;;1.75;1.17;;;17.50;86.40;;;;;;5049561;28;20032;-83
2021/10/31 03:12:52;;;;;;;1.67;1.02;;;17.50;86.40;;;;;;5049469;28;20025;-81
2021/10/31 03:15:18;;;;;;;1.90;1.13;;;17.50;86.30;;;;;;5049329;28;20100;-82
2021/10/31 03:17:44;;;;;;;2.08;1.38;;;17.50;86.40;;;;;;5048974;28;20025;-83
2021/10/31 03:20:10;;;;;;;1.40;1.10;;;17.50;86.40;;;;;;5049245;28;20028;-80
2021/10/31 03:22:36;;;;;;;2.75;1.30;;;17.50;86.30;;;;;;5048091;28;20032;-82
2021/10/31 03:25:03;;;;;;;2.20;1.50;;;17.50;86.30;;;;;;5048404;28;20045;-82
2021/10/31 03:27:29;;;;;;;2.38;1.50;;;17.50;86.30;;;;;;5048683;28;20025;-85
2021/10/31 03:29:54;;;;;;;2.78;1.90;;;17.50;86.30;;;;;;5049247;28;20029;-82
2021/10/31 03:32:20;;;;;;;1.85;1.45;;;17.50;86.30;;;;;;5048607;28;20021;-82
2021/10/31 03:34:46;;;;;;;1.98;1.40;;;17.50;86.30;;;;;;5049036;28;20109;-83
2021/10/31 03:37:12;;;;;;;2.70;1.38;;;17.50;86.30;;;;;;5048287;28;20524;-78
2021/10/31 03:39:37;;;;;;;3.88;1.65;;;17.50;86.30;;;;;;5048684;28;20033;-85
2021/10/31 03:42:05;;;;;;;3.08;1.30;;;17.50;86.30;;;;;;5048802;28;20032;-79
2021/10/31 03:44:35;;;;;;;1.80;1.40;;;17.50;86.30;;;;;;5048268;28;20021;-81
2021/10/31 03:47:01;;;;;;;3.30;1.40;;;17.50;86.30;;;;;;5048704;28;20508;-82
2021/10/31 03:49:27;;;;;;;1.48;1.15;;;17.50;86.20;;;;;;5048775;28;20017;-83
2021/10/31 03:51:52;;;;;;;2.42;1.40;;;17.50;86.20;;;;;;5047891;28;20093;-81
2021/10/31 03:54:18;;;;;;;2.67;1.48;;;17.50;86.20;;;;;;5048316;28;20024;-85
2021/10/31 03:56:44;;;;;;;2.08;1.30;;;17.50;86.20;;;;;;5048517;28;20036;-85
2021/10/31 03:59:09;;;;;;;3.60;1.27;;;17.50;86.20;;;;;;5048604;28;20081;-80
2021/10/31 04:01:35;;;;;;;3.05;1.63;;;17.50;86.20;;;;;;5048260;28;20029;-82
2021/10/31 04:04:02;;;;;;;2.60;1.63;;;17.50;86.10;;;;;;5048620;28;20021;-81
2021/10/31 04:06:28;;;;;;;4.13;1.73;;;17.50;86.10;;;;;;5048092;28;20036;-79
2021/10/31 04:08:54;;;;;;;2.30;1.48;;;17.50;86.20;;;;;;5048773;28;20034;-79
2021/10/31 04:11:20;;;;;;;3.05;1.90;;;17.40;86.10;;;;;;5048053;28;20036;-82
2021/10/31 04:13:46;;;;;;;1.98;1.38;;;17.50;86.10;;;;;;5048488;28;20040;-82
2021/10/31 04:16:12;;;;;;;3.03;1.90;;;17.40;86.10;;;;;;5048392;28;20025;-84
2021/10/31 04:18:37;;;;;;;3.33;1.42;;;17.40;86.00;;;;;;5048117;28;20025;-84
2021/10/31 04:21:03;;;;;;;3.15;1.35;;;17.40;86.20;;;;;;5047948;28;20365;-84
2021/10/31 04:23:30;;;;;;;1.95;1.30;;;17.40;86.10;;;;;;5047722;28;20514;-86
2021/10/31 04:25:56;;;;;;;1.80;1.20;;;17.40;86.10;;;;;;5047123;28;20068;-84
2021/10/31 04:28:23;;;;;;;2.67;1.73;;;17.40;86.00;;;;;;5048065;28;20029;-84
2021/10/31 04:30:49;;;;;;;4.13;1.55;;;17.40;86.00;;;;;;5048115;28;20500;-86
2021/10/31 04:33:15;;;;;;;2.47;1.55;;;17.40;86.00;;;;;;5048061;28;20056;-83
2021/10/31 04:35:40;;;;;;;2.72;1.80;;;17.40;86.00;;;;;;5047856;28;20081;-85
2021/10/31 04:38:13;;;;;;;3.90;1.80;;;17.40;86.00;;;;;;5047637;28;20060;-85
2021/10/31 04:40:41;;;;;;;3.25;1.90;;;17.40;86.00;;;;;;5047588;28;20025;-82
2021/10/31 04:43:11;;;;;;;2.67;1.50;;;17.40;85.90;;;;;;5048068;28;20033;-82
2021/10/31 04:45:43;;;;;;;2.53;1.60;;;17.40;86.00;;;;;;5047725;28;20396;-85
2021/10/31 04:48:10;;;;;;;3.05;1.73;;;17.40;86.00;;;;;;5047821;28;20469;-80
2021/10/31 04:50:36;;;;;;;2.67;1.90;;;17.40;85.90;;;;;;5047683;28;20065;-84
2021/10/31 04:53:04;;;;;;;2.60;1.73;;;17.40;86.00;;;;;;5047265;28;20141;-83
2021/10/31 04:55:30;;;;;;;5.65;1.60;;;17.40;86.00;;;;;;5047982;28;20044;-82
2021/10/31 04:57:57;;;;;;;2.45;1.67;;;17.40;85.90;;;;;;5047535;28;20044;-84
2021/10/31 05:00:23;;;;;;;5.10;1.90;;;17.40;85.90;;;;;;5047574;28;20013;-83
2021/10/31 05:02:48;;;;;;;2.50;1.75;;;17.40;86.00;;;;;;5047602;28;20048;-84
2021/10/31 05:05:14;;;;;;;3.85;2.10;;;17.40;86.00;;;;;;5049559;28;20511;-83
2021/10/31 05:07:40;;;;;;;3.83;1.95;;;17.40;86.00;;;;;;5050661;28;20036;-83
2021/10/31 05:10:06;;;;;;;2.60;1.85;;;17.40;86.00;;;;;;5050927;28;20502;-80
2021/10/31 05:12:31;;;;;;;3.90;2.00;;;17.40;86.00;;;;;;5050995;28;20029;-80
2021/10/31 05:14:57;;;;;;;3.13;1.90;;;17.40;85.90;;;;;;5051391;28;20025;-78
2021/10/31 05:17:23;;;;;;;2.53;1.70;;;17.40;85.90;;;;;;5050433;28;20516;-84
2021/10/31 05:19:48;;;;;;;4.32;2.03;;;17.40;85.90;;;;;;5051146;28;20021;-84
2021/10/31 05:22:14;;;;;;;4.20;2.00;;;17.40;86.00;;;;;;5049376;28;20037;-79
2021/10/31 05:24:39;;;;;;;5.63;2.17;;;17.40;86.00;;;;;;5050699;28;20022;-83
2021/10/31 05:27:05;;;;;;;3.58;2.30;;;17.40;85.90;;;;;;5050974;28;20123;-82
2021/10/31 05:29:31;;;;;;;2.65;1.60;;;17.40;85.90;;;;;;5050981;28;20049;-82
2021/10/31 05:31:57;;;;;;;3.53;2.15;;;17.30;85.90;;;;;;5050828;28;20464;-82
2021/10/31 05:34:22;;;;;;;3.10;2.20;;;17.40;85.90;;;;;;5050630;28;20054;-80
2021/10/31 05:36:48;;;;;;;2.10;1.45;;;17.30;85.90;;;;;;5050435;28;20076;-84
2021/10/31 05:39:13;;;;;;;3.58;2.00;;;17.30;85.80;;;;;;5049501;28;20026;-83
2021/10/31 05:41:39;;;;;;;3.78;2.08;;;17.30;85.80;;;;;;5050525;28;20036;-80
2021/10/31 05:44:05;;;;;;;3.17;1.90;;;17.30;85.80;;;;;;5050713;28;20028;-80
2021/10/31 05:46:32;;;;;;;2.60;1.75;;;17.40;85.80;;;;;;5050250;28;20542;-79
2021/10/31 05:48:58;;;;;;;2.97;1.83;;;17.40;85.80;;;;;;5050701;28;20025;-84
2021/10/31 05:51:23;;;;;;;2.33;1.65;;;17.30;85.90;;;;;;5049224;28;20037;-80
2021/10/31 05:53:49;;;;;;;3.88;2.03;;;17.40;85.80;;;;;;5050750;28;20029;-81
2021/10/31 05:56:15;;;;;;;2.25;1.48;;;17.40;85.80;;;;;;5050462;28;20028;-82
2021/10/31 05:58:41;;;;;;;2.45;1.52;;;17.30;85.80;;;;;;5050458;28;20025;-80
2021/10/31 06:01:07;;;;;;;2.53;1.40;;;17.30;85.80;;;;;;5050049;28;20120;-81
2021/10/31 06:03:32;;;;;;;2.42;1.80;;;17.30;85.80;;;;;;5050388;28;20037;-81
2021/10/31 06:06:00;;;;;;;2.92;1.70;;;17.30;85.80;;;;;;5050522;28;20037;-81
2021/10/31 06:08:25;;;;;;;3.22;1.77;;;17.30;85.70;;;;;;5049755;28;20028;-78
2021/10/31 06:10:52;;;;;;;2.47;1.58;;;17.30;85.80;;;;;;5050320;28;20396;-79
2021/10/31 06:13:19;;;;;;;1.98;1.50;;;17.30;85.70;;;;;;5049831;28;20103;-78
2021/10/31 06:15:46;;;;;;;2.90;1.77;;;17.30;85.70;;;;;;5049936;28;20119;-82
2021/10/31 06:18:16;;;;;;;2.33;1.45;;;17.30;85.70;;;;;;5050224;28;20500;-81
2021/10/31 06:20:42;;;;;;;3.05;1.90;;;17.30;85.80;;;;;;5050163;28;20493;-81
2021/10/31 06:23:07;;;;;;;2.25;1.33;;;17.30;85.80;;;;;;5049348;28;20043;-79
2021/10/31 06:25:33;;;;;;;2.00;1.30;;;17.30;85.80;;;;;;5050064;28;20396;-81
2021/10/31 06:27:58;;;;;;;2.08;1.42;;;17.30;85.70;;;;;;5050078;28;20032;-78
2021/10/31 06:30:24;;;;;;;2.95;1.75;;;17.30;85.70;;;;;;5049817;28;20033;-79
2021/10/31 06:32:50;;;;;;;3.08;1.35;;;17.30;85.70;;;;;;5050005;28;20028;-82
2021/10/31 06:35:16;;;;;;;1.63;1.10;;;17.30;85.70;;;;;;5049595;28;20033;-77
2021/10/31 06:37:42;;;;;;;2.58;1.10;;;17.30;85.70;;;;;;5049249;28;20021;-82
2021/10/31 06:40:09;;;;;;;1.85;1.05;;;17.30;85.80;;;;;;5049862;28;20029;-86
2021/10/31 06:42:35;;;;;;;2.92;1.40;;;17.30;85.70;;;;;;5049599;28;20013;-75
2021/10/31 06:45:00;;;;;;;2.15;1.17;;;17.30;85.60;;;;;;5049639;28;20412;-86
2021/10/31 06:47:26;;;;;;;1.80;0.98;;;17.30;85.50;;;;;;5049556;28;20029;-79
2021/10/31 06:49:52;;;;;;;3.00;1.30;;;17.30;85.30;;;;;;5049753;28;20032;-85
2021/10/31 06:52:18;;;;;;;2.70;1.00;;;17.40;85.40;;;;;;5048080;28;20370;-86
2021/10/31 06:54:44;;;;;;;1.95;1.15;;;17.40;85.30;;;;;;5049633;28;20082;-84
2021/10/31 06:57:10;;;;;;;1.65;1.20;;;17.40;85.20;;;;;;5048127;28;20021;-87
2021/10/31 06:59:36;;;;;;;2.58;1.00;;;17.40;85.20;;;;;;5049496;28;20029;-80
2021/10/31 07:02:02;;;;;;;3.90;1.38;;;17.40;85.10;;;;;;5048600;28;20120;-83
2021/10/31 07:04:29;;;;;;;2.33;1.15;;;17.50;85.20;;;;;;5049248;28;20097;-83
2021/10/31 07:06:55;;;;;;;2.10;1.23;;;17.50;85.80;;;;;;5048859;28;20052;-79
2021/10/31 07:09:21;;;;;;;1.88;0.80;;;17.50;85.00;;;;;;5049060;28;20488;-84
2021/10/31 07:11:47;;;;;;;2.42;1.00;;;17.50;85.00;;;;;;5057228;27;20051;-84
2021/10/31 07:14:13;;;;;;;2.40;1.13;;;17.50;84.90;;;;;;5048428;28;20089;-86
2021/10/31 07:16:38;;;;;;;2.88;1.15;;;17.60;84.90;;;;;;5049019;28;20520;-85
2021/10/31 07:19:04;;;;;;;3.20;1.33;;;17.60;84.80;;;;;;5049549;28;20017;-85
2021/10/31 07:21:30;;;;;;;1.13;0.73;;;17.60;84.70;;;;;;5048555;28;20025;-84
2021/10/31 07:23:56;;;;;;;1.10;0.80;;;17.60;84.60;;;;;;5049173;28;20091;-85
2021/10/31 07:26:22;;;;;;;1.13;0.80;;;17.70;84.60;;;;;;5047938;28;20025;-85
2021/10/31 07:28:47;;;;;;;1.73;0.80;;;17.70;84.60;;;;;;5049066;28;20048;-85
2021/10/31 07:31:15;;;;;;;1.90;0.98;;;17.80;84.60;;;;;;5049019;28;20023;-85
2021/10/31 07:33:41;;;;;;;1.95;0.80;;;17.70;84.40;;;;;;5048997;28;20032;-85
2021/10/31 07:36:06;;;;;;;1.50;0.80;;;17.80;84.40;;;;;;5049269;28;20104;-81
2021/10/31 07:38:33;;;;;;;1.42;1.00;;;17.80;84.40;;;;;;5048440;28;20481;-82
2021/10/31 07:40:58;;;;;;;1.05;0.70;;;17.80;84.30;;;;;;5048830;28;20052;-85
2021/10/31 07:43:24;;;;;;;1.77;0.77;;;17.80;84.20;;;;;;5048667;28;20421;-86
2021/10/31 07:45:50;;;;;;;1.38;0.80;;;17.90;84.20;;;;;;5048689;28;20033;-83
2021/10/31 07:48:15;;;;;;;1.60;0.80;;;17.90;84.20;;;;;;5049160;28;20108;-81
2021/10/31 07:50:41;;;;;;;1.52;0.90;;;17.90;84.20;;;;;;5048804;28;20029;-85
2021/10/31 07:53:12;;;;;;;1.00;0.65;;;18.00;84.20;;;;;;5048430;28;20421;-83
2021/10/31 07:55:38;;;;;;;1.27;0.90;;;18.00;84.10;;;;;;5048414;28;20493;-79
2021/10/31 07:58:06;;;;;;;1.23;0.90;;;18.00;84.10;;;;;;5048958;28;20354;-84
2021/10/31 08:00:33;;;;;;;1.92;0.73;;;18.00;84.00;;;;;;5048382;28;20021;-87
2021/10/31 08:02:59;;;;;;;1.15;0.68;;;18.00;84.00;;;;;;5047992;28;20032;-86
2021/10/31 08:05:25;;;;;;;2.25;0.70;;;18.00;84.00;;;;;;5048270;28;20037;-84
2021/10/31 08:07:51;;;;;;;1.15;0.70;;;18.10;84.00;;;;;;5048008;28;20091;-80
2021/10/31 08:10:18;;;;;;;1.15;0.73;;;18.10;84.00;;;;;;5048504;28;20369;-82
2021/10/31 08:12:44;;;;;;;1.23;0.70;;;18.10;83.90;;;;;;5047281;28;20056;-82
2021/10/31 08:15:10;;;;;;;2.53;0.80;;;18.10;83.90;;;;;;5048016;28;20065;-82
2021/10/31 08:17:36;;;;;;;1.83;1.00;;;18.10;83.90;;;;;;5048269;28;20029;-87
2021/10/31 08:20:02;;;;;;;1.25;0.70;;;18.10;83.90;;;;;;5048304;28;20021;-81
2021/10/31 08:22:28;;;;;;;0.95;0.63;;;18.20;83.90;;;;;;5047637;28;20943;-81
2021/10/31 08:24:53;;;;;;;1.65;0.73;;;18.20;83.90;;;;;;5047508;28;20125;-80
2021/10/31 08:27:19;;;;;;;3.97;0.80;;;18.20;83.80;;;;;;5047961;28;20374;-83
2021/10/31 08:29:46;;;;;;;0.88;0.55;;;18.20;83.80;;;;;;5048022;28;20053;-84
2021/10/31 08:32:13;;;;;;;0.80;0.50;;;18.20;83.70;;;;;;5047859;28;20035;-82
2021/10/31 08:34:39;;;;;;;3.85;0.70;;;18.20;83.70;;;;;;5078542;28;20046;-78
2021/10/31 08:37:05;;;;;;;0.75;0.47;;;18.30;83.70;;;;;;5034815;28;20485;-83
2021/10/31 08:39:30;;;;;;;0.85;0.70;;;18.30;83.70;;;;;;5051409;28;20029;-80
2021/10/31 08:41:57;;;;;;;2.63;0.63;;;18.30;83.70;;;;;;5051633;28;20033;-81
2021/10/31 08:44:23;;;;;;;1.73;0.70;;;18.30;83.70;;;;;;5050654;28;20017;-80
2021/10/31 08:46:49;;;;;;;2.55;0.60;;;18.30;83.70;;;;;;5050874;28;20072;-82
2021/10/31 08:49:15;;;;;;;1.73;0.80;;;18.30;83.70;;;;;;5051434;28;20436;-80
2021/10/31 08:51:41;;;;;;;1.58;0.90;;;18.30;83.70;;;;;;5051353;28;20492;-81
2021/10/31 08:54:07;;;;;;;3.95;0.90;;;18.30;83.70;;;;;;5051744;28;20017;-82
2021/10/31 08:56:33;;;;;;;0.85;0.60;;;18.40;83.70;;;;;;5050779;28;20085;-82
2021/10/31 08:58:59;;;;;;;2.10;0.82;;;18.30;83.60;;;;;;5051409;28;20027;-83
2021/10/31 09:01:26;;;;;;;2.08;0.70;;;18.40;83.70;;;;;;5051215;28;20033;-82
2021/10/31 09:03:54;;;;;;;1.23;0.60;;;18.40;83.70;;;;;;5051411;28;20100;-83
2021/10/31 09:06:25;;;;;;;1.70;0.70;;;18.40;83.60;;;;;;5050918;28;20043;-82
2021/10/31 09:08:51;;;;;;;4.15;0.88;;;18.40;83.60;;;;;;5050794;28;20496;-83
2021/10/31 09:11:16;;;;;;;1.10;0.70;;;18.40;83.50;;;;;;5045234;28;20112;-80
2021/10/31 09:13:42;;;;;;;3.35;0.55;;;18.40;83.50;;;;;;5042566;28;20073;-83
2021/10/31 09:16:08;;;;;;;1.13;0.63;;;18.40;83.50;;;;;;5037859;28;20055;-80
2021/10/31 09:18:34;;;;;;;1.83;0.50;;;18.40;83.40;;;;;;5037875;28;20428;-84
2021/10/31 09:21:01;;;;;;;1.88;0.65;;;18.40;83.40;;;;;;5039177;27;20035;-83
2021/10/31 09:23:27;;;;;;;0.88;0.63;;;18.50;83.40;;;;;;5050104;28;20380;-84
2021/10/31 09:25:53;;;;;;;1.40;0.70;;;18.40;83.30;;;;;;5050429;28;20033;-83
2021/10/31 09:28:18;;;;;;;1.15;0.63;;;18.50;83.40;;;;;;5050999;28;20017;-85
2021/10/31 09:30:44;;;;;;;0.85;0.40;;;18.50;83.40;;;;;;5051192;28;20057;-86
2021/10/31 09:33:12;;;;;;;1.38;0.60;;;18.50;83.40;;;;;;5049565;28;20108;-80
2021/10/31 09:35:46;;;;;;;1.52;0.70;;;18.50;83.40;;;;;;5050883;28;20037;-83
2021/10/31 09:38:13;;;;;;;1.88;0.60;;;18.50;83.40;;;;;;5050151;28;20021;-82
2021/10/31 09:40:39;;;;;;;1.52;0.80;;;18.50;83.40;;;;;;5049391;28;20028;-84
2021/10/31 09:43:05;;;;;;;1.13;0.57;;;18.50;83.40;;;;;;5050508;28;20503;-85
2021/10/31 09:45:32;;;;;;;1.92;0.60;;;18.50;83.40;;;;;;5050337;28;20072;-86
2021/10/31 09:48:01;;;;;;;1.13;0.50;;;18.50;83.40;;;;;;5050570;28;20029;-83
2021/10/31 09:50:33;;;;;;;1.85;0.60;;;18.50;83.40;;;;;;5049906;28;20100;-82
2021/10/31 09:53:00;;;;;;;3.22;0.68;;;18.60;83.70;;;;;;5047055;28;20094;-80
2021/10/31 09:55:26;;;;;;;1.17;0.60;;;18.60;83.80;;;;;;5030876;28;20061;-81
2021/10/31 09:57:52;;;;;;;3.50;0.70;;;18.60;84.00;;;;;;5042066;27;20017;-83
2021/10/31 10:00:20;;;;;;;4.13;0.60;;;18.60;84.20;;;;;;5049121;28;20116;-80
2021/10/31 10:03:06;;;;;;;2.22;0.50;;;18.60;84.30;;;;;;5107590;27;20506;-80
2021/10/31 10:05:32;;;;;;;;;;;18.60;84.70;;;;;;5122545;27;20053;-85
2021/10/31 10:08:18;;;;;;;7.45;0.65;;;18.70;84.80;;;;;;5050578;28;20339;-89
2021/10/31 10:10:47;;;;;;;2.90;0.70;;;18.70;84.70;;;;;;5050581;28;20370;-80
2021/10/31 10:13:24;;;;;;;4.00;1.05;;;18.70;84.80;;;;;;5049507;28;20034;-88
2021/10/31 10:15:52;;;;;;;2.85;0.70;;;18.70;84.90;;;;;;5043369;28;20037;-82
2021/10/31 10:18:31;;;;;;;2.72;0.80;;;18.70;84.90;;;;;;5046986;28;20020;-87
2021/10/31 10:21:32;;;;;;;2.45;0.80;;;18.70;85.10;;;;;;5045136;28;20021;-86
2021/10/31 10:24:10;;;;;;;2.60;0.80;;;18.70;85.20;;;;;;5050181;28;20041;-88
2021/10/31 10:26:44;;;;;;;1.83;0.50;;;18.70;85.30;;;;;;5038665;28;20026;-79
2021/10/31 10:29:21;;;;;;;2.70;0.90;;;18.70;85.20;;;;;;5056057;28;20036;-87
2021/10/31 10:31:53;;;;;;;4.28;0.90;;;18.70;85.10;;;;;;5050098;28;20036;-88
2021/10/31 10:34:51;;;;;;;3.20;1.65;;;18.70;85.10;;;;;;5031142;28;20427;-77
2021/10/31 10:37:20;;;;;;;5.50;1.17;;;18.80;85.20;;;;;;5030053;28;20028;-86
2021/10/31 10:39:52;;;;;;;5.53;1.17;;;18.80;85.30;;;;;;5030203;28;20025;-88
2021/10/31 10:42:31;;;;;;;9.60;1.58;;;18.80;85.30;;;;;;5029808;28;20104;-85
2021/10/31 10:45:00;;;;;;;2.67;1.30;;;18.70;85.40;;;;;;5029716;28;20021;-82
2021/10/31 10:47:26;;;;;;;2.53;1.00;;;18.80;85.60;;;;;;5038213;28;20365;-85
2021/10/31 10:49:54;;;;;;;3.00;1.27;;;18.80;85.60;;;;;;5049665;28;20397;-84
2021/10/31 10:52:42;;;;;;;4.85;1.67;;;18.80;85.60;;;;;;5049446;28;20028;-83
2021/10/31 10:55:12;;;;;;;10.30;1.10;;;18.80;85.70;;;;;;5043867;28;20116;-77
2021/10/31 10:57:48;;;;;;;3.83;1.02;;;18.80;85.80;;;;;;5029784;28;20018;-87
2021/10/31 11:00:23;;;;;;;6.32;1.30;;;18.90;86.00;;;;;;5029611;28;20108;-87
2021/10/31 11:03:20;;;;;;;3.83;1.50;;;18.90;86.60;;;;;;5028955;28;20028;-86
2021/10/31 11:05:48;;;;;;;6.97;1.85;;;19.00;86.50;;;;;;5029429;28;20408;-89
2021/10/31 11:08:16;;;;;;;9.80;2.05;;;19.00;86.40;;;;;;5029372;28;20053;-84
2021/10/31 11:10:54;;;;;;;9.50;1.67;;;19.00;86.40;;;;;;5046982;28;20025;-80
2021/10/31 11:13:19;;;;;;;4.85;1.73;;;19.00;86.30;;;;;;5048906;28;20065;-82
2021/10/31 11:15:45;;;;;;;3.15;1.27;;;19.00;86.40;;;;;;5048460;28;20068;-85
2021/10/31 11:18:11;;;;;;;6.25;1.38;;;19.10;86.90;;;;;;5049714;28;20544;-86
2021/10/31 11:20:39;;;;;;;7.97;1.48;;;19.10;86.60;;;;;;5048668;28;20414;-84
2021/10/31 11:23:07;;;;;;;6.95;1.52;;;19.20;86.70;;;;;;5049144;28;20032;-83
2021/10/31 11:25:36;;;;;;;6.47;1.38;;;19.30;86.50;;;;;;5048911;28;20060;-87
2021/10/31 11:28:05;;;;;;;5.82;0.95;;;19.30;86.40;;;;;;5048477;28;20528;-83
2021/10/31 11:30:33;;;;;;;5.38;1.27;;;19.40;86.10;;;;;;5047105;28;20025;-88
2021/10/31 11:32:59;;;;;;;6.25;1.30;;;19.40;85.80;;;;;;5048868;28;20036;-85
2021/10/31 11:35:26;;;;;;;9.75;1.08;;;19.60;85.80;;;;;;5048758;28;20048;-87
2021/10/31 11:38:03;;;;;;;5.53;1.17;;;19.60;85.40;;;;;;5039078;28;20064;-89
2021/10/31 11:40:45;;;;;;;5.20;1.15;;;19.70;85.40;;;;;;5047981;28;20047;-85
2021/10/31 11:43:34;;;;;;;4.82;1.05;;;19.70;85.40;;;;;;5048999;28;20107;-85
2021/10/31 11:45:59;;;;;;;3.58;1.05;;;19.80;85.40;;;;;;5048304;28;20036;-82
2021/10/31 11:48:34;;;;;;;4.88;1.02;;;19.80;85.10;;;;;;5048063;28;20025;-83
2021/10/31 11:51:02;;;;;;;7.05;1.10;;;19.90;85.00;;;;;;5048551;28;20068;-82
2021/10/31 11:53:37;;;;;;;5.28;1.00;;;19.90;84.80;;;;;;5047571;28;20481;-82
2021/10/31 11:56:29;;;;;;;3.08;0.95;;;19.90;85.30;;;;;;5048182;28;20148;-79
2021/10/31 11:59:03;;;;;;;3.08;1.00;;;20.00;85.50;;;;;;5045847;28;20045;-82
2021/10/31 12:01:39;;;;;;;4.65;0.90;;;20.00;84.70;;;;;;5042438;28;20017;-81
2021/10/31 12:04:10;;;;;;;3.05;0.70;;;20.10;84.60;;;;;;5045331;28;20113;-83
2021/10/31 12:06:41;;;;;;;8.02;0.80;;;20.10;83.90;;;;;;5047950;28;20595;-78
2021/10/31 12:09:19;;;;;;;3.78;0.80;;;20.20;84.10;;;;;;5042199;28;20047;-78
2021/10/31 12:11:45;;;;;;;6.30;0.80;;;20.20;83.70;;;;;;5047555;28;20074;-83
2021/10/31 12:14:12;;;;;;;2.67;0.70;;;20.20;83.30;;;;;;5046537;28;20025;-84
2021/10/31 12:16:58;;;;;;;4.78;0.68;;;20.20;83.00;;;;;;5045580;28;20508;-85
2021/10/31 12:19:37;;;;;;;;;;;20.20;83.40;;;;;;5047545;28;20045;-83
2021/10/31 12:22:31;;;;;;;1.60;0.70;;;20.30;83.20;;;;;;5040753;28;19920;-82
2021/10/31 12:25:00;;;;;;;6.45;1.15;;;20.30;83.50;;;;;;5045426;28;20029;-84
2021/10/31 12:27:39;;;;;;;6.47;1.00;;;20.30;83.60;;;;;;5048012;28;20067;-85
2021/10/31 12:30:20;;;;;;;4.60;1.08;;;20.30;83.40;;;;;;5043763;28;20029;-88
2021/10/31 12:32:47;;;;;;;3.50;1.05;;;20.30;83.70;;;;;;5047598;28;20445;-85
2021/10/31 12:35:29;;;;;;;3.60;1.00;;;20.30;84.00;;;;;;5047932;28;20036;-88
2021/10/31 12:38:20;;;;;;;8.23;0.80;;;20.20;84.30;;;;;;5047513;28;20036;-81
2021/10/31 12:41:04;;;;;;;6.93;0.70;;;20.30;87.90;;;;;;5037505;28;20022;-84
2021/10/31 12:44:08;;;;;;;10.68;0.88;;;20.20;88.10;;;;;;5044417;28;20129;-83
2021/10/31 12:46:33;;;;;;;5.78;0.80;;;20.20;90.70;;;;;;5044855;28;20152;-83
2021/10/31 12:49:03;;;;;;;2.20;0.60;;;20.20;90.60;;;;;;5037243;28;20601;-84
2021/10/31 12:51:46;;;;;;;2.25;0.75;;;20.10;91.00;;;;;;5034379;28;20029;-86
2021/10/31 12:54:22;;;;;;;5.72;0.82;;;19.90;83.50;;;;;;5037229;28;20104;-85
2021/10/31 12:56:49;;;;;;;2.63;0.93;;;19.90;84.20;;;;;;5031378;28;20492;-91
2021/10/31 12:59:17;;;;;;;3.17;0.90;;;19.90;84.80;;;;;;5046101;28;20031;-80